Ethelsville, AL (35461)

12:32 PM CST on February 06, 2016 (GMT -0600)
Pleasant Hill | | Change Station
CLOSE
Current Station
Personal Weather Station
Location: Columbus, MS
Elevation: 315 ft
Nearby Weather Stations

Elev 315 ft 33.52 °N, 88.29 °W | Updated 14 minutes ago

Partly Cloudy
Partly Cloudy
60.6 °F
Feels Like 60.6 °F
N
0.0
Wind Variable Wind from NNW

Today
High -- | Low -- °F
--% Chance of Precip.
Yesterday
High -- | Low -- °F
Precip. -- in
Pressure 30.35 in
Visibility 10.0 miles
Clouds Mostly Cloudy 12000 ft
Dew Point 24 °F
Humidity 24%
Rainfall 0.00 in
Snow Depth Not available.
6:45 AM 5:28 PM
Waning Crescent, 4% visible
METAR KGTR 061745Z 03008KT 10SM BKN120 11/M06 A3035
Pressure 30.35 in
Visibility 10.0 miles
Clouds Mostly Cloudy 12000 ft
Dew Point 24 °F
Humidity 24%
Rainfall 0.00 in
Snow Depth Not available.
6:45 AM 5:28 PM
Waning Crescent, 4% visible
METAR KGTR 061745Z 03008KT 10SM BKN120 11/M06 A3035

10-Day Weather Forecast

Almanac

Astronomy

Feb. 06, 2016 Rise Set
Actual Time
Civil Twilight
Nautical Twilight
Astronomical Twilight
Moon
Length of Visible Light
Length of Day
Tomorrow will be .
, % of the Moon is Illuminated

Today's Extremes

State Highs State Lows

Community

WunderPhotos

Upload Photos

1,891,032 photos uploaded!

WunderBlog® & News

Nearby

Air Quality

  Air Quality AQ Index Pollutant
Not available.

Snow Depth

Station Depth Elevation

Earthquake Activity

City Distance Mag. Time & Date
Minimum magnitude displayed is 2.5.

Coastal Water Temperatures

Place Temperature

Stations

Nearby Weather Stations

Station Location Temp. Windchill Dew Point Humidity Wind Precip. Elev Updated Type
                   

Watches & Warnings

There are currently no watches in effect.